UTDD

Dushanbe Airport

Dushanbe, Tajikistan
METAR UTDD 111030Z VRB01MPS 9999 FEW066CB BKN100 13/M00 Q1020 R09/D NOSIG RMK QFE697/0929
Observed Flight Rules
Dec-11 @ 10:30 UTC (47 minutes ago) Visual Flight Rules
Wind Visibility Clouds
Variable at 2 knots 10,000+ meters
  • Few at 6,600' AGL
  • Broken at 10,000' AGL
Temperatures Readings
Current 13°C / 55°F
Dewpoint 0°C / 32°F
Humidity 41%
Altimeter 30.12" Hg
Pressure 1020 hPa
Elevation 803
METAR UTDD 111030Z VRB01MPS 9999 FEW066CB BKN100 13/M00 Q1020 R09/D NOSIG RMK QFE697/0929
Observed Flight Rules
Dec-11 @ 10:30 UTC
(47 minutes ago)
VFR
Wind Visibility
Variable at 2 knots 10,000+ meters
Clouds
  • Few at 6,600' AGL
  • Broken at 10,000' AGL
Temperature Dewpoint
13°C / 55°F 0°C / 32°F
Humidity Altimeter Pressure
41% 30.12" Hg 1020 hPa